createdAt,value
2019-03-28T00:00:09.518Z,96852.63
2019-03-28T00:02:37.947Z,96855.19
2019-03-28T00:05:07.885Z,96852.56
2019-03-28T00:07:36.012Z,96852.72
2019-03-28T00:10:03.879Z,96849.14
2019-03-28T00:12:32.236Z,96854.16
2019-03-28T00:17:34.808Z,96850.31
2019-03-28T00:20:03.152Z,96857.36
2019-03-28T00:25:30.728Z,96847.36
2019-03-28T00:27:59.105Z,96842.59
2019-03-28T00:30:27.444Z,96844.05
2019-03-28T00:32:55.830Z,96840.34
2019-03-28T00:35:24.183Z,96842.73
2019-03-28T00:37:53.538Z,96840.43
2019-03-28T00:40:21.930Z,96843.14
2019-03-28T00:42:50.269Z,96839.17
2019-03-28T00:45:18.653Z,96838.70
2019-03-28T00:47:46.988Z,96837.87
2019-03-28T00:50:15.416Z,96841.25
2019-03-28T00:52:43.793Z,96839.74
2019-03-28T00:55:12.202Z,96839.89
2019-03-28T00:57:40.566Z,96846.16
2019-03-28T01:00:08.909Z,96838.98
2019-03-28T01:02:37.249Z,96839.88
2019-03-28T01:05:06.283Z,96845.20
2019-03-28T01:07:34.661Z,96845.82
2019-03-28T01:10:02.998Z,96842.14
2019-03-28T01:12:31.373Z,96840.72
2019-03-28T01:14:59.731Z,96837.20
2019-03-28T01:17:28.112Z,96838.97
2019-03-28T01:19:56.440Z,96842.66
2019-03-28T01:22:24.791Z,96835.93
2019-03-28T01:24:53.138Z,96841.83
2019-03-28T01:27:21.522Z,96840.22
2019-03-28T01:29:50.768Z,96840.95
2019-03-28T01:32:19.401Z,96836.88
2019-03-28T01:34:47.744Z,96835.09
2019-03-28T01:37:16.094Z,96835.50
2019-03-28T01:39:44.432Z,96835.11
2019-03-28T01:42:12.788Z,96832.95
2019-03-28T01:44:41.125Z,96831.92
2019-03-28T01:47:09.534Z,96827.41
2019-03-28T01:49:37.898Z,96833.50
2019-03-28T01:52:06.256Z,96823.77
2019-03-28T01:54:34.613Z,96825.13
2019-03-28T01:57:10.785Z,96826.64
2019-03-28T01:59:31.424Z,96828.20
2019-03-28T02:01:59.771Z,96831.91
2019-03-28T02:04:28.141Z,96831.97
2019-03-28T02:06:56.521Z,96828.69
2019-03-28T02:09:24.864Z,96823.05
2019-03-28T02:11:53.242Z,96828.61
2019-03-28T02:16:55.765Z,96824.20
2019-03-28T02:19:24.099Z,96822.16
2019-03-28T02:21:53.199Z,96821.39
2019-03-28T02:24:20.812Z,96827.88
2019-03-28T02:26:49.158Z,96826.23
2019-03-28T02:31:51.688Z,96825.11
2019-03-28T02:34:20.024Z,96821.53
2019-03-28T02:36:48.376Z,96824.80
2019-03-28T02:39:16.732Z,96823.21
2019-03-28T02:41:45.072Z,96827.86
2019-03-28T02:44:13.461Z,96829.09
2019-03-28T02:46:41.794Z,96824.11
2019-03-28T02:49:10.205Z,96827.70
2019-03-28T02:51:38.578Z,96828.67
2019-03-28T02:54:06.946Z,96831.41
2019-03-28T02:56:35.292Z,96831.99
2019-03-28T02:59:03.638Z,96831.90
2019-03-28T03:01:31.989Z,96836.00
2019-03-28T03:04:00.362Z,96834.38
2019-03-28T03:06:28.703Z,96828.17
2019-03-28T03:08:57.054Z,96827.05
2019-03-28T03:11:25.426Z,96829.31
2019-03-28T03:13:53.753Z,96830.21
2019-03-28T03:16:22.716Z,96828.18
2019-03-28T03:18:50.500Z,96825.67
2019-03-28T03:21:18.853Z,96828.28
2019-03-28T03:23:47.204Z,96823.14
2019-03-28T03:26:15.545Z,96815.48
2019-03-28T03:28:43.915Z,96822.01
2019-03-28T03:31:12.271Z,96815.48
2019-03-28T03:33:40.648Z,96821.72
2019-03-28T03:36:08.976Z,96814.99
2019-03-28T03:38:37.333Z,96817.70
2019-03-28T03:41:05.692Z,96816.81
2019-03-28T03:43:34.058Z,96820.61
2019-03-28T03:46:02.412Z,96816.11
2019-03-28T03:48:31.721Z,96821.03
2019-03-28T03:51:00.097Z,96821.81
2019-03-28T03:53:28.441Z,96821.69
2019-03-28T03:55:56.796Z,96829.37
2019-03-28T04:01:02.391Z,96823.72
2019-03-28T04:03:30.760Z,96824.78
2019-03-28T04:05:59.098Z,96827.66
2019-03-28T04:08:27.493Z,96826.22
2019-03-28T04:11:01.266Z,96828.26
2019-03-28T04:13:29.782Z,96827.30
2019-03-28T04:15:58.146Z,96828.73
2019-03-28T04:18:26.517Z,96823.43
2019-03-28T04:20:54.978Z,96820.41
2019-03-28T04:25:57.502Z,96822.99
2019-03-28T04:28:32.070Z,96826.16
2019-03-28T04:30:54.253Z,96828.58
2019-03-28T04:33:22.683Z,96829.68
2019-03-28T04:35:51.081Z,96831.61
2019-03-28T04:38:19.412Z,96834.08
2019-03-28T04:40:47.739Z,96831.83
2019-03-28T04:43:16.074Z,96831.88
2019-03-28T04:45:44.436Z,96833.84
2019-03-28T04:48:12.808Z,96830.03
2019-03-28T04:50:41.242Z,96831.19
2019-03-28T04:53:09.609Z,96830.56
2019-03-28T04:55:38.039Z,96830.64
2019-03-28T04:58:06.374Z,96830.00
2019-03-28T05:00:34.719Z,96826.56
2019-03-28T05:03:03.097Z,96831.43
2019-03-28T05:05:32.339Z,96834.23
2019-03-28T05:07:59.772Z,96836.99
2019-03-28T05:10:28.153Z,96836.27
2019-03-28T05:12:56.506Z,96846.41
2019-03-28T05:15:24.861Z,96850.45
2019-03-28T05:17:53.211Z,96854.76
2019-03-28T05:20:21.723Z,96849.41
2019-03-28T05:22:50.104Z,96855.36
2019-03-28T05:25:18.458Z,96853.27
2019-03-28T05:27:46.845Z,96852.98
2019-03-28T05:30:15.260Z,96846.81
2019-03-28T05:32:43.611Z,96851.13
2019-03-28T05:37:49.211Z,96855.78
2019-03-28T05:40:17.633Z,96853.08
2019-03-28T05:42:46.015Z,96858.01
2019-03-28T05:45:14.374Z,96858.22
2019-03-28T05:47:42.724Z,96856.48
2019-03-28T05:50:11.077Z,96862.45
2019-03-28T05:52:39.448Z,96867.80
2019-03-28T05:55:07.807Z,96862.34
2019-03-28T05:57:36.188Z,96863.01
2019-03-28T06:00:04.619Z,96865.94
2019-03-28T06:02:32.993Z,96862.52
2019-03-28T06:05:01.701Z,96865.09
2019-03-28T06:07:30.073Z,96866.12
2019-03-28T06:09:58.393Z,96869.11
2019-03-28T06:12:26.765Z,96865.42
2019-03-28T06:14:55.104Z,96868.64
2019-03-28T06:17:23.454Z,96866.14
2019-03-28T06:22:26.070Z,96866.06
2019-03-28T06:24:54.401Z,96863.77
2019-03-28T06:27:22.758Z,96862.93
2019-03-28T06:29:51.108Z,96866.77
2019-03-28T06:32:19.460Z,96865.31
2019-03-28T06:34:47.831Z,96864.27
2019-03-28T06:37:16.163Z,96862.20
2019-03-28T06:39:44.498Z,96863.73
2019-03-28T06:42:12.852Z,96870.25
2019-03-28T06:44:41.209Z,96873.21
2019-03-28T06:47:09.589Z,96872.17
2019-03-28T06:49:37.927Z,96874.71
2019-03-28T06:52:06.286Z,96876.85
2019-03-28T06:54:34.637Z,96874.49
2019-03-28T06:57:02.996Z,96872.77
2019-03-28T06:59:37.268Z,96874.83
2019-03-28T07:04:36.928Z,96865.48
2019-03-28T07:07:05.383Z,96868.28
2019-03-28T07:09:34.584Z,96874.33
2019-03-28T07:12:02.931Z,96870.74
2019-03-28T07:17:05.624Z,96873.40
2019-03-28T07:19:33.963Z,96866.48
2019-03-28T07:22:03.293Z,96874.16
2019-03-28T07:24:31.642Z,96873.01
2019-03-28T07:27:00.000Z,96864.97
2019-03-28T07:29:28.369Z,96867.14
2019-03-28T07:31:56.719Z,96871.03
2019-03-28T07:34:25.108Z,96867.94
2019-03-28T07:36:53.505Z,96864.29
2019-03-28T07:39:22.800Z,96859.95
2019-03-28T07:41:51.117Z,96861.24
2019-03-28T07:44:19.634Z,96856.86
2019-03-28T07:46:47.935Z,96855.33
2019-03-28T07:49:16.264Z,96854.37
2019-03-28T07:51:44.621Z,96855.96
2019-03-28T07:54:13.923Z,96856.31
2019-03-28T07:59:16.448Z,96855.48
2019-03-28T08:01:44.817Z,96857.67
2019-03-28T08:04:13.199Z,96860.58
2019-03-28T08:06:49.774Z,96859.13
2019-03-28T08:09:09.886Z,96854.70
2019-03-28T08:11:38.796Z,96856.34
2019-03-28T08:14:06.596Z,96862.67
2019-03-28T08:16:34.940Z,96865.98
2019-03-28T08:19:03.362Z,96866.42
2019-03-28T08:21:31.710Z,96867.18
2019-03-28T08:24:00.047Z,96874.98
2019-03-28T08:26:30.262Z,96880.78
2019-03-28T08:28:57.733Z,96880.53
2019-03-28T08:31:26.092Z,96875.38
2019-03-28T08:36:28.691Z,96872.56
2019-03-28T08:38:57.046Z,96872.00
2019-03-28T08:41:26.389Z,96868.89
2019-03-28T08:43:54.766Z,96869.50
2019-03-28T08:46:23.274Z,96875.45
2019-03-28T08:48:51.641Z,96868.05
2019-03-28T08:51:19.984Z,96867.03
2019-03-28T08:53:48.337Z,96862.25
2019-03-28T08:56:16.678Z,96866.86
2019-03-28T08:58:45.053Z,96866.79
2019-03-28T09:01:13.473Z,96865.76
2019-03-28T09:03:41.845Z,96861.67
2019-03-28T09:06:10.193Z,96869.86
2019-03-28T09:08:38.565Z,96859.97
2019-03-28T09:11:07.913Z,96862.12
2019-03-28T09:13:36.296Z,96859.48
2019-03-28T09:16:04.748Z,96852.55
2019-03-28T09:18:33.094Z,96854.27
2019-03-28T09:21:01.504Z,96858.55
2019-03-28T09:23:29.843Z,96858.41
2019-03-28T09:25:58.235Z,96856.05
2019-03-28T09:28:26.590Z,96852.81
2019-03-28T09:33:29.297Z,96853.27
2019-03-28T09:38:31.977Z,96845.55
2019-03-28T09:41:00.355Z,96856.11
2019-03-28T09:46:02.988Z,96855.39
2019-03-28T09:48:31.377Z,96842.83
2019-03-28T09:51:00.366Z,96838.80
2019-03-28T09:53:28.090Z,96841.37
2019-03-28T09:55:56.452Z,96840.95
2019-03-28T09:58:24.787Z,96840.77
2019-03-28T10:01:02.624Z,96840.34
2019-03-28T10:03:22.440Z,96843.64
2019-03-28T10:05:50.836Z,96843.02
2019-03-28T10:08:19.204Z,96835.65
2019-03-28T10:13:21.867Z,96838.30
2019-03-28T10:15:50.253Z,96834.09
2019-03-28T10:20:52.843Z,96839.20
2019-03-28T10:23:21.213Z,96821.80
2019-03-28T10:28:18.547Z,96821.42
2019-03-28T10:30:46.949Z,96812.47
2019-03-28T10:35:49.562Z,96810.66
2019-03-28T10:38:17.966Z,96797.06
2019-03-28T10:40:46.376Z,96806.59
2019-03-28T10:43:14.749Z,96809.37
2019-03-28T10:45:43.132Z,96807.50
2019-03-28T10:48:11.555Z,96805.66
2019-03-28T10:50:42.519Z,96809.45
2019-03-28T10:53:08.405Z,96808.99
2019-03-28T10:55:36.806Z,96809.28
2019-03-28T11:00:42.523Z,96815.48
2019-03-28T11:03:10.973Z,96807.28
2019-03-28T11:05:39.345Z,96805.50
2019-03-28T11:08:07.734Z,96802.03
2019-03-28T11:10:36.115Z,96803.45
2019-03-28T11:13:04.538Z,96799.32
2019-03-28T11:15:32.908Z,96797.70
2019-03-28T11:20:40.614Z,96809.58
2019-03-28T11:23:08.975Z,96808.06
2019-03-28T11:25:37.437Z,96807.30
2019-03-28T11:28:06.055Z,96800.53
2019-03-28T11:30:34.472Z,96799.59
2019-03-28T11:35:38.184Z,96798.13
2019-03-28T11:38:09.422Z,96797.55
2019-03-28T11:40:35.090Z,96803.36
2019-03-28T11:43:03.533Z,96801.27
2019-03-28T11:45:31.936Z,96806.44
2019-03-28T11:48:00.312Z,96800.72
2019-03-28T11:50:28.756Z,96795.34
2019-03-28T11:52:57.140Z,96790.60
2019-03-28T11:55:30.260Z,96786.08
2019-03-28T11:57:58.658Z,96789.09
2019-03-28T12:00:27.045Z,96783.28
2019-03-28T12:02:55.428Z,96783.73
2019-03-28T12:05:23.856Z,96781.34
2019-03-28T12:07:52.248Z,96783.81
2019-03-28T12:10:20.636Z,96777.95
2019-03-28T12:12:49.089Z,96778.82
2019-03-28T12:15:17.493Z,96780.86
2019-03-28T12:17:45.906Z,96773.77
2019-03-28T12:20:14.352Z,96770.70
2019-03-28T12:22:44.265Z,96775.28
2019-03-28T12:25:12.626Z,96764.97
2019-03-28T12:27:41.039Z,96763.82
2019-03-28T12:30:10.070Z,96761.03
2019-03-28T12:32:38.485Z,96770.20
2019-03-28T12:35:06.861Z,96763.30
2019-03-28T12:37:35.290Z,96760.23
2019-03-28T12:40:03.673Z,96756.62
2019-03-28T12:45:10.066Z,96749.91
2019-03-28T12:47:42.812Z,96740.73
2019-03-28T12:50:08.264Z,96740.56
2019-03-28T12:52:36.672Z,96748.09
2019-03-28T12:55:06.712Z,96746.57
2019-03-28T12:57:35.105Z,96745.52
2019-03-28T13:00:04.272Z,96739.03
2019-03-28T13:02:32.661Z,96741.33
2019-03-28T13:05:01.057Z,96740.37
2019-03-28T13:07:29.490Z,96743.91
2019-03-28T13:09:57.889Z,96744.67
2019-03-28T13:12:26.332Z,96738.37
2019-03-28T13:14:54.749Z,96750.41
2019-03-28T13:17:23.184Z,96749.85
2019-03-28T13:19:51.568Z,96750.97
2019-03-28T13:22:19.953Z,96746.17
2019-03-28T13:24:48.356Z,96747.61
2019-03-28T13:27:16.771Z,96749.45
2019-03-28T13:29:45.196Z,96749.36
2019-03-28T13:32:13.615Z,96753.13
2019-03-28T13:37:16.335Z,96739.13
2019-03-28T13:39:44.810Z,96739.59
2019-03-28T13:42:13.175Z,96739.16
2019-03-28T13:44:41.575Z,96740.60
2019-03-28T13:49:44.389Z,96738.89
2019-03-28T13:52:12.839Z,96740.80
2019-03-28T13:54:41.217Z,96737.05
2019-03-28T13:57:09.642Z,96735.55
2019-03-28T14:04:46.702Z,96741.01
2019-03-28T14:07:17.311Z,96739.52
2019-03-28T14:12:17.800Z,96738.59
2019-03-28T14:14:46.196Z,96740.97
2019-03-28T14:17:14.641Z,96742.78
2019-03-28T14:19:44.020Z,96737.20
2019-03-28T14:22:12.412Z,96739.84
2019-03-28T14:24:41.772Z,96737.48
2019-03-28T14:27:10.164Z,96740.63
2019-03-28T14:29:38.565Z,96741.55
2019-03-28T14:32:06.999Z,96735.16
2019-03-28T14:34:36.323Z,96733.73
2019-03-28T14:37:04.780Z,96729.47
2019-03-28T14:39:33.230Z,96735.88
2019-03-28T14:42:01.640Z,96732.16
2019-03-28T14:44:30.053Z,96727.40
2019-03-28T14:46:58.448Z,96725.77
2019-03-28T14:49:27.740Z,96724.67
2019-03-28T14:51:56.129Z,96722.58
2019-03-28T14:54:24.525Z,96721.24
2019-03-28T14:56:53.930Z,96722.50
2019-03-28T14:59:32.525Z,96725.89
2019-03-28T15:01:50.760Z,96727.37
2019-03-28T15:04:19.160Z,96722.95
2019-03-28T15:06:48.479Z,96732.98
2019-03-28T15:09:17.756Z,96726.13
2019-03-28T15:11:46.130Z,96726.14
2019-03-28T15:14:14.535Z,96732.53
2019-03-28T15:19:17.267Z,96729.89
2019-03-28T15:21:45.639Z,96729.75
2019-03-28T15:24:14.060Z,96726.72
2019-03-28T15:26:42.619Z,96731.92
2019-03-28T15:29:10.855Z,96729.09
2019-03-28T15:31:39.371Z,96731.05
2019-03-28T15:34:07.755Z,96737.48
2019-03-28T15:36:36.161Z,96732.53
2019-03-28T15:39:05.658Z,96736.82
2019-03-28T15:41:32.939Z,96732.02
2019-03-28T15:44:01.344Z,96727.34
2019-03-28T15:49:03.990Z,96731.17
2019-03-28T15:51:32.375Z,96726.56
2019-03-28T15:54:00.813Z,96717.94
2019-03-28T15:56:29.204Z,96714.08
2019-03-28T15:58:57.596Z,96722.50
2019-03-28T16:01:26.940Z,96723.50
2019-03-28T16:03:55.354Z,96719.44
2019-03-28T16:06:23.751Z,96721.98
2019-03-28T16:14:05.790Z,96736.03
2019-03-28T16:16:35.140Z,96731.06
2019-03-28T16:19:05.870Z,96730.54
2019-03-28T16:21:33.891Z,96727.52
2019-03-28T16:24:02.277Z,96730.28
2019-03-28T16:26:31.647Z,96732.78
2019-03-28T16:29:00.023Z,96735.69
2019-03-28T16:34:07.133Z,96742.88
2019-03-28T16:36:34.133Z,96739.50
2019-03-28T16:39:02.603Z,96742.41
2019-03-28T16:44:07.274Z,96746.66
2019-03-28T16:49:09.925Z,96753.42
2019-03-28T16:51:38.469Z,96759.38
2019-03-28T16:54:06.876Z,96756.88
2019-03-28T16:56:35.316Z,96755.14
2019-03-28T16:59:03.700Z,96755.14
2019-03-28T17:01:32.132Z,96758.29
2019-03-28T17:04:00.512Z,96758.02
2019-03-28T17:06:28.900Z,96764.29
2019-03-28T17:08:57.438Z,96761.28
2019-03-28T17:11:25.869Z,96760.78
2019-03-28T17:13:54.244Z,96759.64
2019-03-28T17:16:22.645Z,96765.30
2019-03-28T17:18:51.029Z,96760.94
2019-03-28T17:21:19.425Z,96761.65
2019-03-28T17:26:22.165Z,96759.56
2019-03-28T17:28:50.503Z,96766.57
2019-03-28T17:31:19.203Z,96764.68
2019-03-28T17:33:47.359Z,96769.39
2019-03-28T17:36:21.638Z,96772.07
2019-03-28T17:38:51.167Z,96774.59
2019-03-28T17:41:19.556Z,96773.89
2019-03-28T17:43:47.959Z,96774.74
2019-03-28T17:46:16.372Z,96773.72
2019-03-28T17:48:44.760Z,96774.58
2019-03-28T17:51:13.193Z,96776.70
2019-03-28T17:53:41.616Z,96781.34
2019-03-28T17:56:10.003Z,96782.30
2019-03-28T17:58:38.407Z,96780.07
2019-03-28T18:01:06.809Z,96785.33
2019-03-28T18:03:35.196Z,96789.55
2019-03-28T18:06:03.580Z,96789.52
2019-03-28T18:08:31.991Z,96794.89
2019-03-28T18:11:00.569Z,96799.75
2019-03-28T18:13:28.740Z,96797.17
2019-03-28T18:18:31.345Z,96801.34
2019-03-28T18:20:59.723Z,96805.77
2019-03-28T18:23:29.086Z,96810.36
2019-03-28T18:25:57.463Z,96814.14
2019-03-28T18:28:25.863Z,96814.19
2019-03-28T18:30:54.237Z,96813.55
2019-03-28T18:33:22.635Z,96815.91
2019-03-28T18:35:51.021Z,96814.04
2019-03-28T18:38:19.443Z,96820.00
2019-03-28T18:40:47.827Z,96820.44
2019-03-28T18:43:16.213Z,96822.92
2019-03-28T18:45:44.599Z,96827.82
2019-03-28T18:48:26.946Z,96824.08
2019-03-28T18:50:41.578Z,96826.25
2019-03-28T18:53:09.809Z,96822.86
2019-03-28T18:55:38.145Z,96821.55
2019-03-28T18:58:06.628Z,96822.02
2019-03-28T19:03:09.220Z,96822.98
2019-03-28T19:05:37.587Z,96820.92
2019-03-28T19:08:06.056Z,96824.55
2019-03-28T19:10:34.431Z,96825.05
2019-03-28T19:13:04.709Z,96823.47
2019-03-28T19:15:31.224Z,96825.81
2019-03-28T19:17:59.833Z,96827.01
2019-03-28T19:20:28.092Z,96829.99
2019-03-28T19:22:56.495Z,96833.79
2019-03-28T19:25:24.871Z,96833.28
2019-03-28T19:30:28.379Z,96830.91
2019-03-28T19:32:56.763Z,96833.90
2019-03-28T19:35:32.873Z,96837.87
2019-03-28T19:37:53.538Z,96835.47
2019-03-28T19:42:56.163Z,96835.27
2019-03-28T19:45:31.223Z,96842.10
2019-03-28T19:47:59.619Z,96837.28
2019-03-28T19:50:29.545Z,96837.23
2019-03-28T19:52:57.404Z,96832.16
2019-03-28T19:55:25.807Z,96833.29
2019-03-28T19:57:54.235Z,96832.00
2019-03-28T20:03:00.087Z,96837.64
2019-03-28T20:05:25.227Z,96837.91
2019-03-28T20:07:55.556Z,96840.34
2019-03-28T20:10:23.938Z,96841.84
2019-03-28T20:12:52.353Z,96845.41
2019-03-28T20:15:20.754Z,96845.73
2019-03-28T20:17:49.135Z,96845.66
2019-03-28T20:20:17.528Z,96844.94
2019-03-28T20:22:46.915Z,96846.67
2019-03-28T20:27:49.946Z,96849.61
2019-03-28T20:30:18.991Z,96850.15
2019-03-28T20:32:47.362Z,96853.42
2019-03-28T20:35:15.824Z,96852.42
2019-03-28T20:37:44.216Z,96850.23
2019-03-28T20:40:12.622Z,96857.80
2019-03-28T20:45:15.235Z,96865.05
2019-03-28T20:47:43.597Z,96860.80
2019-03-28T20:50:12.007Z,96865.98
2019-03-28T20:52:41.331Z,96867.61
2019-03-28T20:55:09.723Z,96866.53
2019-03-28T20:57:40.442Z,96867.84
2019-03-28T21:00:08.471Z,96872.31
2019-03-28T21:02:34.899Z,96877.58
2019-03-28T21:05:03.280Z,96871.11
2019-03-28T21:07:31.656Z,96871.79
2019-03-28T21:10:00.036Z,96873.56
2019-03-28T21:12:28.459Z,96875.23
2019-03-28T21:14:56.838Z,96877.41
2019-03-28T21:17:25.220Z,96881.56
2019-03-28T21:22:27.851Z,96876.06
2019-03-28T21:27:30.494Z,96873.20
2019-03-28T21:29:59.901Z,96873.38
2019-03-28T21:32:28.237Z,96865.91
2019-03-28T21:34:56.798Z,96865.15
2019-03-28T21:37:25.047Z,96860.43
2019-03-28T21:39:53.565Z,96857.11
2019-03-28T21:42:21.904Z,96859.00
2019-03-28T21:44:50.212Z,96859.46
2019-03-28T21:47:18.552Z,96859.88
2019-03-28T21:49:46.982Z,96864.50
2019-03-28T21:52:15.335Z,96864.69
2019-03-28T21:54:43.649Z,96860.27
2019-03-28T21:57:14.574Z,96863.33
2019-03-28T21:59:40.352Z,96865.46
2019-03-28T22:02:08.787Z,96858.13
2019-03-28T22:04:37.777Z,96857.01
2019-03-28T22:07:06.154Z,96852.05
2019-03-28T22:09:34.494Z,96850.42
2019-03-28T22:12:03.153Z,96845.39
2019-03-28T22:14:31.209Z,96851.63
2019-03-28T22:16:59.580Z,96842.03
2019-03-28T22:19:27.990Z,96835.46
2019-03-28T22:21:57.326Z,96833.84
2019-03-28T22:24:25.680Z,96833.65
2019-03-28T22:26:54.017Z,96821.63
2019-03-28T22:29:22.359Z,96821.17
2019-03-28T22:31:50.705Z,96820.41
2019-03-28T22:34:19.054Z,96816.94
2019-03-28T22:36:57.059Z,96820.69
2019-03-28T22:39:15.780Z,96817.23
2019-03-28T22:41:44.128Z,96818.86
2019-03-28T22:44:14.295Z,96812.59
2019-03-28T22:46:40.856Z,96810.88
2019-03-28T22:49:09.208Z,96813.22
2019-03-28T22:51:37.552Z,96806.55
2019-03-28T22:54:05.879Z,96811.64
2019-03-28T22:56:34.248Z,96814.37
2019-03-28T22:59:02.592Z,96809.27
2019-03-28T23:01:30.954Z,96807.69
2019-03-28T23:03:59.311Z,96799.31
2019-03-28T23:09:03.864Z,96799.02
2019-03-28T23:11:32.210Z,96798.28
2019-03-28T23:14:00.716Z,96803.16
2019-03-28T23:19:03.331Z,96797.91
2019-03-28T23:24:06.016Z,96798.50
2019-03-28T23:26:34.925Z,96795.41
2019-03-28T23:29:02.815Z,96797.56
2019-03-28T23:31:31.216Z,96794.87
2019-03-28T23:33:59.575Z,96796.20
2019-03-28T23:36:27.978Z,96798.76
2019-03-28T23:38:56.333Z,96800.59
2019-03-28T23:41:26.646Z,96801.79
2019-03-28T23:43:55.031Z,96801.23
2019-03-28T23:46:24.335Z,96796.16
2019-03-28T23:48:52.717Z,96796.64
2019-03-28T23:51:21.060Z,96795.39
2019-03-28T23:53:49.437Z,96789.44
2019-03-28T23:56:17.769Z,96788.11
2019-03-28T23:58:46.870Z,96784.48
